Time;durP1;ratioP1;P1;durP2;ratioP2;P2;SDS_P1;SDS_P2;PMS_P1;PMS_P2;Temp;Humidity;BMP_temperature;BMP_pressure;BME280_temperature;BME280_humidity;BME280_pressure;Samples;Min_cycle;Max_cycle;Signal;HPM_P1;HPM_P2
2023/02/25 00:01:48;;;;;;;139.45;86.53;;;11.60;96.60;;;;;;5032536;28;20045;-78
2023/02/25 00:04:52;;;;;;;134.60;85.72;;;11.70;96.70;;;;;;5032807;28;20064;-78
2023/02/25 00:07:56;;;;;;;142.73;89.38;;;11.80;96.60;;;;;;5032117;28;20516;-80
2023/02/25 00:11:05;;;;;;;138.10;90.05;;;10.90;96.70;;;;;;5032697;28;20045;-80
2023/02/25 00:14:10;;;;;;;146.15;89.25;;;11.60;96.70;;;;;;5032085;28;20040;-81
2023/02/25 00:17:13;;;;;;;136.73;83.80;;;11.50;96.90;;;;;;5032007;28;20061;-80
2023/02/25 00:20:21;;;;;;;133.48;84.20;;;11.50;97.10;;;;;;5032344;28;20065;-79
2023/02/25 00:23:25;;;;;;;140.75;83.70;;;11.60;97.50;;;;;;5030919;28;20048;-80
2023/02/25 00:26:29;;;;;;;119.80;82.05;;;11.40;97.40;;;;;;5032355;28;20060;-79
2023/02/25 00:29:33;;;;;;;135.90;85.45;;;11.50;97.30;;;;;;5031823;28;20048;-80
2023/02/25 00:32:39;;;;;;;128.30;83.32;;;;;;;;;;5031564;28;20049;-80
2023/02/25 00:35:44;;;;;;;133.25;83.30;;;;;;;;;;5031699;28;20053;-80
2023/02/25 00:38:50;;;;;;;139.68;85.72;;;11.30;96.60;;;;;;5031499;28;20053;-80
2023/02/25 00:41:54;;;;;;;132.18;85.80;;;;;;;;;;5031564;28;20064;-80
2023/02/25 00:44:59;;;;;;;130.65;83.68;;;;;;;;;;5031346;28;20496;-79
2023/02/25 00:48:03;;;;;;;134.05;83.85;;;11.00;97.00;;;;;;5031266;28;20060;-80
2023/02/25 00:51:09;;;;;;;130.40;84.22;;;10.80;97.00;;;;;;5031666;28;20385;-80
2023/02/25 00:54:14;;;;;;;127.00;81.90;;;;;;;;;;5030658;28;20052;-80
2023/02/25 00:57:18;;;;;;;141.93;83.35;;;10.70;97.30;;;;;;5030552;28;20536;-81
2023/02/25 01:00:22;;;;;;;121.05;81.88;;;10.70;97.40;;;;;;5031571;28;20056;-81
2023/02/25 01:03:27;;;;;;;129.30;85.07;;;10.70;97.70;;;;;;5031497;28;20048;-81
2023/02/25 01:06:32;;;;;;;125.72;82.18;;;10.50;97.60;;;;;;5031077;28;20049;-81
2023/02/25 01:09:37;;;;;;;129.50;82.50;;;;;;;;;;5030565;28;20048;-80
2023/02/25 01:12:41;;;;;;;125.28;82.80;;;;;;;;;;5031059;28;20044;-80
2023/02/25 01:15:45;;;;;;;130.73;81.05;;;10.30;97.40;;;;;;5030089;28;20072;-80
2023/02/25 01:18:58;;;;;;;125.25;83.70;;;10.60;97.50;;;;;;5031240;28;20045;-80
2023/02/25 01:22:02;;;;;;;126.38;82.72;;;10.70;97.60;;;;;;5030627;28;20405;-79
2023/02/25 01:25:12;;;;;;;125.25;83.05;;;10.60;97.20;;;;;;5030027;28;20523;-79
2023/02/25 01:28:27;;;;;;;131.02;82.63;;;10.90;97.20;;;;;;5030849;28;20052;-80
2023/02/25 01:31:31;;;;;;;134.25;85.55;;;10.90;97.30;;;;;;5030950;28;20539;-79
2023/02/25 01:34:35;;;;;;;127.85;80.60;;;10.60;97.50;;;;;;5029768;28;20045;-81
2023/02/25 01:37:42;;;;;;;120.93;80.35;;;10.30;97.50;;;;;;5030189;28;20040;-80
2023/02/25 01:40:46;;;;;;;137.60;83.50;;;10.40;97.20;;;;;;5030031;28;20655;-81
2023/02/25 01:44:09;;;;;;;123.13;81.05;;;;;;;;;;5030926;28;20555;-79
2023/02/25 01:47:19;;;;;;;138.50;83.45;;;11.30;97.90;;;;;;5030573;28;20406;-80
2023/02/25 01:50:31;;;;;;;139.10;83.13;;;10.50;97.60;;;;;;5041239;28;20041;-79
2023/02/25 01:53:41;;;;;;;138.45;87.38;;;10.70;97.70;;;;;;5031025;28;20048;-80
2023/02/25 01:56:52;;;;;;;145.45;87.78;;;10.30;97.70;;;;;;5029741;28;20048;-80
2023/02/25 01:59:56;;;;;;;126.10;86.43;;;10.30;97.10;;;;;;5029892;28;20516;-80
2023/02/25 02:03:01;;;;;;;130.52;82.78;;;10.60;97.60;;;;;;5029890;28;20041;-80
2023/02/25 02:06:17;;;;;;;133.93;83.75;;;10.60;97.40;;;;;;5052741;28;20067;-80
2023/02/25 02:09:24;;;;;;;121.30;83.20;;;10.70;97.10;;;;;;5030543;28;20060;-80
2023/02/25 02:12:32;;;;;;;126.70;80.93;;;10.70;96.50;;;;;;5029797;28;20417;-81
2023/02/25 02:15:42;;;;;;;123.97;77.75;;;10.80;96.60;;;;;;5030158;28;20060;-80
2023/02/25 02:18:53;;;;;;;121.78;81.53;;;10.70;96.40;;;;;;5030551;28;20057;-79
2023/02/25 02:22:06;;;;;;;124.90;79.88;;;11.30;96.60;;;;;;5030675;28;20048;-80
2023/02/25 02:25:28;;;;;;;111.40;75.38;;;10.60;96.60;;;;;;5030679;28;20680;-81
2023/02/25 02:28:54;;;;;;;120.57;78.00;;;10.70;96.30;;;;;;5030387;28;20056;-80
2023/02/25 02:32:07;;;;;;;119.80;77.78;;;10.70;96.60;;;;;;5029787;28;20405;-80
2023/02/25 02:35:35;;;;;;;122.78;73.18;;;10.70;96.60;;;;;;5029644;28;20056;-78
2023/02/25 02:38:51;;;;;;;106.25;66.18;;;10.80;96.60;;;;;;5029672;28;20113;-80
2023/02/25 02:42:12;;;;;;;102.13;66.78;;;10.80;96.40;;;;;;5029780;28;20052;-78
2023/02/25 02:45:45;;;;;;;109.03;63.67;;;13.10;97.00;;;;;;5029675;28;20040;-78
2023/02/25 02:48:55;;;;;;;107.85;61.65;;;;;;;;;;5037451;28;20504;-79
2023/02/25 02:52:17;;;;;;;96.55;59.33;;;11.30;96.50;;;;;;5033864;28;20048;-78
2023/02/25 02:55:31;;;;;;;102.88;61.80;;;11.20;96.10;;;;;;5033511;28;20048;-81
2023/02/25 02:58:41;;;;;;;99.63;57.45;;;11.70;96.30;;;;;;5032728;28;20056;-79
2023/02/25 03:01:52;;;;;;;95.07;58.05;;;11.20;95.90;;;;;;5033402;28;20040;-80
2023/02/25 03:05:04;;;;;;;93.43;59.47;;;11.10;96.00;;;;;;5033574;28;20050;-80
2023/02/25 03:08:08;;;;;;;;;;;11.20;96.10;;;;;;5032796;28;20528;-80
2023/02/25 03:11:13;;;;;;;96.85;57.53;;;;;;;;;;5033586;28;19916;-80
2023/02/25 03:14:18;;;;;;;92.90;59.05;;;11.20;96.40;;;;;;5032449;28;20040;-80
2023/02/25 03:17:32;;;;;;;97.32;59.30;;;11.90;96.60;;;;;;5033150;28;20044;-79
2023/02/25 03:20:42;;;;;;;100.13;58.53;;;11.10;96.60;;;;;;5032271;28;20048;-79
2023/02/25 03:23:47;;;;;;;89.03;57.03;;;11.10;96.80;;;;;;5032882;28;20512;-82
2023/02/25 03:26:52;;;;;;;90.18;55.28;;;11.10;97.00;;;;;;5033048;28;20060;-78
2023/02/25 03:30:17;;;;;;;103.43;56.50;;;10.80;97.00;;;;;;5032033;28;20048;-79
2023/02/25 03:33:46;;;;;;;96.72;56.78;;;11.20;97.10;;;;;;5032120;28;20056;-80
2023/02/25 03:36:57;;;;;;;86.88;51.72;;;11.30;97.10;;;;;;5020548;28;20508;-80
2023/02/25 03:40:11;;;;;;;83.45;49.95;;;11.50;96.80;;;;;;5031929;28;20044;-81
2023/02/25 03:43:16;;;;;;;;;;;11.50;96.90;;;;;;5033482;28;20497;-80
2023/02/25 03:46:21;;;;;;;80.07;49.08;;;11.90;96.90;;;;;;5031744;28;20383;-81
2023/02/25 03:49:34;;;;;;;83.38;48.85;;;11.20;96.60;;;;;;5031941;28;20048;-81
2023/02/25 03:52:39;;;;;;;78.13;50.90;;;11.20;96.50;;;;;;5032114;28;20049;-81
2023/02/25 03:55:50;;;;;;;83.22;51.47;;;10.70;96.60;;;;;;5031662;28;20053;-81
2023/02/25 03:58:55;;;;;;;83.53;50.65;;;;;;;;;;5031642;28;20057;-80
2023/02/25 04:02:00;;;;;;;88.07;50.75;;;11.10;96.90;;;;;;5032775;28;20044;-79
2023/02/25 04:05:05;;;;;;;86.20;50.78;;;11.90;97.00;;;;;;5043179;28;20044;-80
2023/02/25 04:08:14;;;;;;;82.90;50.22;;;12.20;96.90;;;;;;5032249;28;20508;-81
2023/02/25 04:11:19;;;;;;;80.35;50.40;;;;;;;;;;5043738;28;20425;-80
2023/02/25 04:14:25;;;;;;;79.15;50.67;;;;;;;;;;5031309;28;20048;-81
2023/02/25 04:17:28;;;;;;;86.05;50.15;;;11.00;97.60;;;;;;5032252;28;20044;-81
2023/02/25 04:20:33;;;;;;;77.90;47.58;;;10.80;97.20;;;;;;5031471;28;20048;-81
2023/02/25 04:23:37;;;;;;;75.13;49.90;;;;;;;;;;5032246;28;20056;-81
2023/02/25 04:26:41;;;;;;;78.50;49.63;;;13.40;98.20;;;;;;5032098;28;20075;-81
2023/02/25 04:29:45;;;;;;;78.18;50.03;;;11.00;97.20;;;;;;5032251;28;20052;-80
2023/02/25 04:32:49;;;;;;;80.47;48.22;;;12.60;97.90;;;;;;5031955;28;20048;-81
2023/02/25 04:35:53;;;;;;;70.60;47.03;;;11.00;97.40;;;;;;5042302;28;20052;-81
2023/02/25 04:38:59;;;;;;;72.85;45.20;;;10.80;97.30;;;;;;5031754;28;20624;-80
2023/02/25 04:42:05;;;;;;;73.70;46.50;;;10.90;97.30;;;;;;5031889;28;20052;-80
2023/02/25 04:45:10;;;;;;;78.80;46.75;;;10.90;97.20;;;;;;5031858;28;20036;-80
2023/02/25 04:48:15;;;;;;;71.43;45.55;;;;;;;;;;5031433;28;20071;-80
2023/02/25 04:51:19;;;;;;;67.70;45.72;;;10.80;97.20;;;;;;5031423;28;20041;-79
2023/02/25 04:54:23;;;;;;;72.57;43.70;;;9.30;96.70;;;;;;5031464;28;20076;-78
2023/02/25 04:57:27;;;;;;;74.43;44.95;;;11.10;97.10;;;;;;5031966;28;20068;-79
2023/02/25 05:00:32;;;;;;;71.68;45.35;;;;;;;;;;5031319;28;20048;-80
2023/02/25 05:03:37;;;;;;;66.95;42.30;;;11.20;96.80;;;;;;5031343;28;20515;-81
2023/02/25 05:06:41;;;;;;;63.97;43.42;;;11.20;96.70;;;;;;5031507;28;20064;-78
2023/02/25 05:09:45;;;;;;;72.20;42.72;;;11.20;96.70;;;;;;5030772;28;20413;-79
2023/02/25 05:12:49;;;;;;;69.60;43.45;;;11.10;96.70;;;;;;5031113;28;20044;-81
2023/02/25 05:16:09;;;;;;;65.57;43.33;;;11.10;96.60;;;;;;5031107;28;20512;-79
2023/02/25 05:19:21;;;;;;;67.90;43.60;;;11.10;96.30;;;;;;5030852;28;20500;-81
2023/02/25 05:22:26;;;;;;;68.07;42.25;;;13.50;97.50;;;;;;5031085;28;20052;-80
2023/02/25 05:25:32;;;;;;;70.15;42.60;;;;;;;;;;5031337;28;20041;-80
2023/02/25 05:28:36;;;;;;;68.07;42.25;;;11.00;96.90;;;;;;5030678;28;20064;-80
2023/02/25 05:31:40;;;;;;;72.57;40.67;;;11.00;96.70;;;;;;5031042;28;20049;-80
2023/02/25 05:34:44;;;;;;;64.60;38.67;;;11.10;96.30;;;;;;5031029;28;20045;-80
2023/02/25 05:37:48;;;;;;;58.60;38.30;;;10.40;96.30;;;;;;5030664;28;20052;-80
2023/02/25 05:40:53;;;;;;;63.95;36.58;;;11.40;96.60;;;;;;5031110;28;20044;-81
2023/02/25 05:43:57;;;;;;;59.50;37.33;;;10.90;96.60;;;;;;5030800;28;20401;-80
2023/02/25 05:47:01;;;;;;;58.60;35.83;;;11.00;96.60;;;;;;5030464;28;20045;-81
2023/02/25 05:50:05;;;;;;;57.97;35.55;;;11.00;96.70;;;;;;5030937;28;20511;-80
2023/02/25 05:53:10;;;;;;;57.92;34.67;;;;;;;;;;5031059;28;20048;-79
2023/02/25 05:56:17;;;;;;;57.22;34.08;;;11.10;96.70;;;;;;5030986;28;20044;-78
2023/02/25 05:59:21;;;;;;;52.70;33.92;;;11.10;96.60;;;;;;5030690;28;20044;-79
2023/02/25 06:02:25;;;;;;;62.08;35.58;;;;;;;;;;5030741;28;20060;-80
2023/02/25 06:05:29;;;;;;;53.72;34.30;;;11.10;96.40;;;;;;5030530;28;20523;-80
2023/02/25 06:08:34;;;;;;;68.03;36.60;;;11.20;96.40;;;;;;5030578;28;20048;-80
2023/02/25 06:11:38;;;;;;;57.30;35.35;;;11.10;96.20;;;;;;5030635;28;20037;-80
2023/02/25 06:14:42;;;;;;;59.50;35.65;;;11.50;96.30;;;;;;5030645;28;20611;-80
2023/02/25 06:17:46;;;;;;;68.13;36.45;;;11.20;96.30;;;;;;5030744;28;20045;-79
2023/02/25 06:20:49;;;;;;;71.85;36.30;;;11.30;96.70;;;;;;5029930;28;20040;-81
2023/02/25 06:23:54;;;;;;;57.03;34.85;;;10.40;96.50;;;;;;5034445;28;20053;-80
2023/02/25 06:26:58;;;;;;;54.53;34.22;;;11.20;96.80;;;;;;5034368;28;20049;-79
2023/02/25 06:30:02;;;;;;;62.88;36.20;;;11.30;96.70;;;;;;5034272;28;20682;-80
2023/02/25 06:33:06;;;;;;;62.50;35.60;;;11.30;96.60;;;;;;5033411;28;20036;-79
2023/02/25 06:36:12;;;;;;;62.60;35.72;;;11.30;96.40;;;;;;5033386;28;20044;-80
2023/02/25 06:39:16;;;;;;;73.40;35.58;;;11.50;96.40;;;;;;5034054;28;20044;-81
2023/02/25 06:42:20;;;;;;;59.83;34.08;;;;;;;;;;5034086;28;20650;-80
2023/02/25 06:45:24;;;;;;;75.75;39.67;;;12.80;96.50;;;;;;5034102;28;20052;-81
2023/02/25 06:48:29;;;;;;;72.47;38.22;;;11.70;96.40;;;;;;5033671;28;20053;-74
2023/02/25 06:51:32;;;;;;;65.15;36.40;;;11.70;96.40;;;;;;5033677;28;20069;-76
2023/02/25 06:54:37;;;;;;;61.60;35.05;;;11.70;96.20;;;;;;5033978;28;20044;-76
2023/02/25 06:57:40;;;;;;;59.97;33.95;;;11.70;96.10;;;;;;5033376;28;20053;-76
2023/02/25 07:00:44;;;;;;;83.80;35.92;;;11.70;96.30;;;;;;5033532;28;20036;-76
2023/02/25 07:03:48;;;;;;;69.72;34.22;;;11.70;96.30;;;;;;5033415;28;20045;-75
2023/02/25 07:06:52;;;;;;;67.70;36.85;;;;;;;;;;5033284;28;20052;-75
2023/02/25 07:09:57;;;;;;;77.18;38.30;;;;;;;;;;5033428;28;20052;-77
2023/02/25 07:13:01;;;;;;;78.25;38.15;;;11.80;96.30;;;;;;5033662;28;20679;-76
2023/02/25 07:16:05;;;;;;;84.03;39.65;;;;;;;;;;5033361;28;20048;-75
2023/02/25 07:19:09;;;;;;;75.00;38.63;;;12.10;96.30;;;;;;5033426;28;20037;-75
2023/02/25 07:22:15;;;;;;;80.95;39.13;;;11.90;96.30;;;;;;5032660;28;20052;-74
2023/02/25 07:25:20;;;;;;;66.25;35.17;;;12.00;96.30;;;;;;5031986;28;20040;-76
2023/02/25 07:28:23;;;;;;;72.43;36.92;;;12.00;96.30;;;;;;5032823;28;20445;-81
2023/02/25 07:31:28;;;;;;;68.18;37.58;;;;;;;;;;5032838;28;20048;-83
2023/02/25 07:34:32;;;;;;;67.15;37.28;;;11.90;96.00;;;;;;5033257;28;20052;-83
2023/02/25 07:37:37;;;;;;;77.13;38.63;;;;;;;;;;5031713;28;20045;-77
2023/02/25 07:40:41;;;;;;;79.70;38.40;;;;;;;;;;5033009;28;20060;-75
2023/02/25 07:43:46;;;;;;;74.07;36.55;;;12.30;95.90;;;;;;5020546;28;20056;-74
2023/02/25 07:46:50;;;;;;;63.78;37.60;;;;;;;;;;5032684;28;20044;-76
2023/02/25 07:49:54;;;;;;;67.05;34.70;;;;;;;;;;5032838;28;20096;-78
2023/02/25 07:53:01;;;;;;;61.85;33.58;;;;;;;;;;5032684;28;20496;-77
2023/02/25 07:56:07;;;;;;;73.60;35.30;;;12.30;95.80;;;;;;5032487;28;20048;-80
2023/02/25 07:59:11;;;;;;;66.93;33.53;;;14.90;96.40;;;;;;5031675;28;20049;-78
2023/02/25 08:02:16;;;;;;;66.10;34.20;;;;;;;;;;5031512;28;20500;-77
2023/02/25 08:05:22;;;;;;;69.15;34.30;;;;;;;;;;5032062;28;20040;-73
2023/02/25 08:08:27;;;;;;;62.88;34.03;;;17.30;96.50;;;;;;5031786;28;20056;-79
2023/02/25 08:11:31;;;;;;;63.25;33.95;;;;;;;;;;5032199;28;20100;-79
2023/02/25 08:14:36;;;;;;;66.85;33.40;;;13.20;95.20;;;;;;5032117;28;20389;-74
2023/02/25 08:17:41;;;;;;;66.32;32.40;;;;;;;;;;5032121;28;20506;-81
2023/02/25 08:20:46;;;;;;;60.70;32.88;;;12.90;95.20;;;;;;5031797;28;20036;-80
2023/02/25 08:23:51;;;;;;;54.13;32.35;;;12.90;95.10;;;;;;5032126;28;20072;-77
2023/02/25 08:26:55;;;;;;;58.22;31.33;;;13.10;95.40;;;;;;5031647;28;20045;-74
2023/02/25 08:29:59;;;;;;;61.25;31.27;;;13.40;95.50;;;;;;5032202;28;20048;-77
2023/02/25 08:33:03;;;;;;;75.32;33.70;;;13.20;95.60;;;;;;5031628;28;20389;-74
2023/02/25 08:36:16;;;;;;;64.38;34.03;;;12.20;95.70;;;;;;5032082;28;20052;-78
2023/02/25 08:39:21;;;;;;;73.35;35.30;;;;;;;;;;5031200;28;20044;-76
2023/02/25 08:42:25;;;;;;;58.00;31.80;;;13.30;96.60;;;;;;5031639;28;20048;-76
2023/02/25 08:45:29;;;;;;;63.33;32.22;;;14.20;97.00;;;;;;5030106;28;20508;-76
2023/02/25 08:48:34;;;;;;;64.57;34.20;;;13.60;96.50;;;;;;5030395;28;20052;-75
2023/02/25 08:51:39;;;;;;;74.63;36.38;;;13.70;96.60;;;;;;5031486;28;20052;-78
2023/02/25 08:54:43;;;;;;;66.55;36.60;;;14.10;96.90;;;;;;5031419;28;20099;-77
2023/02/25 08:57:47;;;;;;;66.32;37.55;;;13.50;96.80;;;;;;5031048;28;20052;-75
2023/02/25 09:00:53;;;;;;;57.28;35.58;;;13.40;96.60;;;;;;5031227;28;20049;-81
2023/02/25 09:03:57;;;;;;;50.88;32.30;;;13.80;96.70;;;;;;5031154;28;20048;-75
2023/02/25 09:07:02;;;;;;;51.55;31.50;;;12.50;96.30;;;;;;5030728;28;20488;-75
2023/02/25 09:10:09;;;;;;;52.47;31.10;;;13.80;96.40;;;;;;5029829;28;20409;-75
2023/02/25 09:13:19;;;;;;;52.88;30.25;;;13.90;96.40;;;;;;5030892;28;20052;-74
2023/02/25 09:16:28;;;;;;;39.92;26.48;;;14.00;96.40;;;;;;5030974;28;20393;-74
2023/02/25 09:19:33;;;;;;;41.38;28.17;;;14.10;96.40;;;;;;5030974;28;20390;-75
2023/02/25 09:22:39;;;;;;;44.75;28.60;;;14.20;96.60;;;;;;5030260;28;20060;-75
2023/02/25 09:25:44;;;;;;;52.47;29.55;;;14.20;96.50;;;;;;5030531;28;20041;-75
2023/02/25 09:28:48;;;;;;;41.05;26.35;;;14.40;96.30;;;;;;5030687;28;20056;-74
2023/02/25 09:31:53;;;;;;;52.83;29.25;;;14.40;96.00;;;;;;5030737;28;20044;-74
2023/02/25 09:35:02;;;;;;;42.22;27.88;;;14.40;95.80;;;;;;5030991;28;20068;-73
2023/02/25 09:38:06;;;;;;;44.53;26.42;;;14.50;95.60;;;;;;5030930;28;20045;-74
2023/02/25 09:41:35;;;;;;;57.47;31.60;;;14.50;95.20;;;;;;5030893;28;20052;-75
2023/02/25 09:44:43;;;;;;;46.03;29.00;;;14.50;94.80;;;;;;5029635;28;20037;-78
2023/02/25 09:47:58;;;;;;;45.97;26.55;;;14.50;94.90;;;;;;5030379;28;20048;-73
2023/02/25 09:51:16;;;;;;;37.38;25.02;;;14.60;94.90;;;;;;5030423;28;20053;-75
2023/02/25 09:54:30;;;;;;;36.75;24.10;;;14.70;94.80;;;;;;5031347;28;20503;-75
2023/02/25 09:57:40;;;;;;;38.13;23.65;;;14.70;94.70;;;;;;5034866;28;20044;-76
2023/02/25 10:01:05;;;;;;;36.65;24.80;;;14.80;94.70;;;;;;5034142;28;20048;-75
2023/02/25 10:04:15;;;;;;;48.42;28.60;;;14.90;94.80;;;;;;5034787;28;20048;-75
2023/02/25 10:07:32;;;;;;;43.03;28.92;;;15.00;94.80;;;;;;5033842;28;20080;-78
2023/02/25 10:10:46;;;;;;;43.00;29.73;;;15.00;94.70;;;;;;5034204;28;20049;-78
2023/02/25 10:14:25;;;;;;;43.45;27.48;;;15.20;94.70;;;;;;5056560;28;20052;-76
2023/02/25 10:18:02;;;;;;;33.92;24.92;;;15.20;94.60;;;;;;5035565;28;20056;-79
2023/02/25 10:21:17;;;;;;;43.45;26.45;;;15.20;94.50;;;;;;5033143;28;20064;-76
2023/02/25 10:24:33;;;;;;;52.13;29.95;;;15.40;94.50;;;;;;5034428;28;20065;-79
2023/02/25 10:27:48;;;;;;;45.55;29.05;;;15.50;94.30;;;;;;5033444;28;20072;-78
2023/02/25 10:31:17;;;;;;;43.47;27.25;;;15.50;94.10;;;;;;5033347;28;20045;-77
2023/02/25 10:34:27;;;;;;;37.33;23.55;;;15.60;93.90;;;;;;5033686;28;20044;-75
2023/02/25 10:37:39;;;;;;;34.95;21.60;;;15.60;93.50;;;;;;5034243;28;20056;-74
2023/02/25 10:40:42;;;;;;;31.88;21.85;;;15.60;93.10;;;;;;5033862;28;20044;-80
2023/02/25 10:43:49;;;;;;;34.50;21.48;;;15.70;92.80;;;;;;5035119;28;20044;-81
2023/02/25 10:46:59;;;;;;;33.17;21.30;;;15.70;92.30;;;;;;5033906;28;20049;-76
2023/02/25 10:50:30;;;;;;;34.20;19.85;;;15.70;91.60;;;;;;5033711;28;20064;-70
2023/02/25 10:53:34;;;;;;;49.45;25.15;;;15.80;91.60;;;;;;5033614;28;20068;-80
2023/02/25 10:56:44;;;;;;;36.28;22.25;;;15.80;91.30;;;;;;5033321;28;20056;-79
2023/02/25 10:59:59;;;;;;;39.10;22.75;;;15.80;91.20;;;;;;5033907;28;20048;-79
2023/02/25 11:03:04;;;;;;;46.08;24.83;;;15.90;91.30;;;;;;5033614;28;20052;-74
2023/02/25 11:06:29;;;;;;;39.88;25.45;;;15.90;91.40;;;;;;5033106;28;20484;-76
2023/02/25 11:09:35;;;;;;;44.30;25.42;;;15.90;91.70;;;;;;5033221;28;20056;-73
2023/02/25 11:12:41;;;;;;;39.53;24.40;;;16.00;91.90;;;;;;5033023;28;20044;-73
2023/02/25 11:15:49;;;;;;;42.35;26.13;;;16.00;92.00;;;;;;5036184;28;20064;-86
2023/02/25 11:19:00;;;;;;;41.53;24.20;;;16.10;92.20;;;;;;5034037;28;20053;-83
2023/02/25 11:22:14;;;;;;;40.25;23.13;;;16.10;92.30;;;;;;5033168;28;20080;-80
2023/02/25 11:25:22;;;;;;;41.80;23.23;;;16.20;92.40;;;;;;5033123;28;20040;-83
2023/02/25 11:28:39;;;;;;;48.75;23.08;;;16.20;92.30;;;;;;5033084;28;20049;-78
2023/02/25 11:31:49;;;;;;;36.90;20.65;;;16.20;91.90;;;;;;5033155;28;20044;-78
2023/02/25 11:35:06;;;;;;;44.63;21.10;;;16.30;91.70;;;;;;5032725;28;20057;-76
2023/02/25 11:38:27;;;;;;;36.78;19.90;;;16.30;91.50;;;;;;5032493;28;20040;-77
2023/02/25 11:41:32;;;;;;;34.65;20.83;;;16.30;91.20;;;;;;5032824;28;20401;-77
2023/02/25 11:44:44;;;;;;;51.20;22.67;;;16.40;91.00;;;;;;5032696;28;20063;-77
2023/02/25 11:47:48;;;;;;;31.45;19.05;;;16.40;90.80;;;;;;5032396;28;20508;-78
2023/02/25 11:51:45;;;;;;;37.42;19.80;;;16.40;90.50;;;;;;5032415;28;20053;-77
2023/02/25 11:55:03;;;;;;;39.13;21.30;;;16.40;90.60;;;;;;5051739;28;20052;-77
2023/02/25 11:58:27;;;;;;;51.08;28.48;;;16.40;90.60;;;;;;5032210;28;20049;-80
2023/02/25 12:01:54;;;;;;;71.43;31.45;;;16.50;90.80;;;;;;5035082;28;20048;-81
2023/02/25 12:05:16;;;;;;;51.80;27.85;;;16.60;91.40;;;;;;5032562;28;20040;-84
2023/02/25 12:08:42;;;;;;;56.63;28.95;;;16.60;91.60;;;;;;5032557;28;20052;-82
2023/02/25 12:11:58;;;;;;;58.88;28.48;;;16.60;92.00;;;;;;5031739;28;20045;-78
2023/02/25 12:15:17;;;;;;;62.03;27.25;;;16.60;91.20;;;;;;5032668;28;20052;-80
2023/02/25 12:18:32;;;;;;;54.53;26.45;;;16.60;91.30;;;;;;5032059;28;20044;-79
2023/02/25 12:22:11;;;;;;;48.15;23.05;;;16.60;90.80;;;;;;5031147;28;20056;-80
2023/02/25 12:25:37;;;;;;;53.95;26.20;;;16.60;90.70;;;;;;5032027;28;20381;-79
2023/02/25 12:29:05;;;;;;;51.90;26.70;;;16.70;90.60;;;;;;5031972;28;20048;-80
2023/02/25 12:32:51;;;;;;;63.28;24.80;;;16.80;90.10;;;;;;5032144;28;20049;-79
2023/02/25 12:36:14;;;;;;;38.08;21.85;;;16.80;89.70;;;;;;5031387;28;20222;-80
2023/02/25 12:39:25;;;;;;;34.92;20.75;;;16.90;89.40;;;;;;5032023;28;20064;-79
2023/02/25 12:42:52;;;;;;;30.52;18.23;;;16.90;89.80;;;;;;5031814;28;20041;-79
2023/02/25 12:46:20;;;;;;;42.67;17.90;;;16.90;90.00;;;;;;5031122;28;20496;-78
2023/02/25 12:50:02;;;;;;;34.97;20.90;;;16.90;90.00;;;;;;5031694;28;20401;-78
2023/02/25 12:53:25;;;;;;;41.72;21.30;;;16.90;89.50;;;;;;5031624;28;20053;-80
2023/02/25 12:56:29;;;;;;;37.80;21.05;;;16.90;89.10;;;;;;5031139;28;20044;-77
2023/02/25 13:00:11;;;;;;;42.17;22.23;;;16.90;88.60;;;;;;5031896;28;20401;-77
2023/02/25 13:03:34;;;;;;;33.40;19.15;;;16.90;88.20;;;;;;5031555;28;20048;-79
2023/02/25 13:06:56;;;;;;;32.35;20.48;;;16.90;88.30;;;;;;5031150;28;20052;-78
2023/02/25 13:10:22;;;;;;;51.08;24.13;;;16.90;89.00;;;;;;5031015;28;20060;-77
2023/02/25 13:13:49;;;;;;;53.58;28.98;;;17.00;89.60;;;;;;5031241;28;20044;-80
2023/02/25 13:17:03;;;;;;;48.67;27.95;;;17.00;90.00;;;;;;5030701;28;20056;-77
2023/02/25 13:20:41;;;;;;;52.75;29.13;;;17.00;90.00;;;;;;5031381;28;20048;-81
2023/02/25 13:23:57;;;;;;;56.55;29.52;;;16.90;90.00;;;;;;5031125;28;20060;-79
2023/02/25 13:27:25;;;;;;;58.58;28.95;;;16.80;90.00;;;;;;5031126;28;20045;-79
2023/02/25 13:30:57;;;;;;;62.53;30.80;;;16.80;90.00;;;;;;5030731;28;20389;-78
2023/02/25 13:34:04;;;;;;;;;;;16.80;90.00;;;;;;5032491;28;20036;-81
2023/02/25 13:37:36;;;;;;;64.82;34.70;;;16.70;89.40;;;;;;5031874;28;20372;-84
2023/02/25 13:40:50;;;;;;;50.85;29.45;;;16.70;87.80;;;;;;5031467;28;20115;-81
2023/02/25 13:44:14;;;;;;;48.80;28.30;;;16.70;88.50;;;;;;5032994;28;20401;-76
2023/02/25 13:47:42;;;;;;;53.53;29.77;;;16.70;88.70;;;;;;5030888;28;20040;-80
2023/02/25 13:51:10;;;;;;;47.92;28.23;;;16.60;88.80;;;;;;5031271;28;20049;-81
2023/02/25 13:54:42;;;;;;;50.33;27.88;;;16.60;88.80;;;;;;5030802;28;20044;-78
2023/02/25 13:58:05;;;;;;;40.38;25.02;;;16.60;89.00;;;;;;5030753;28;20496;-77
2023/02/25 14:01:36;;;;;;;52.25;26.10;;;16.50;89.10;;;;;;5030862;28;20354;-73
2023/02/25 14:05:17;;;;;;;45.58;25.58;;;16.50;89.20;;;;;;5032338;28;20155;-78
2023/02/25 14:08:49;;;;;;;43.65;24.67;;;16.50;88.90;;;;;;5030764;28;20049;-76
2023/02/25 14:12:32;;;;;;;44.63;24.25;;;16.50;88.60;;;;;;5031410;28;20393;-76
2023/02/25 14:15:54;;;;;;;40.10;23.65;;;16.50;88.60;;;;;;5030226;28;20461;-72
2023/02/25 14:19:21;;;;;;;56.72;26.85;;;16.50;88.40;;;;;;5032226;28;20060;-80
2023/02/25 14:23:10;;;;;;;39.75;21.75;;;16.50;87.70;;;;;;5029857;28;20056;-80
2023/02/25 14:26:52;;;;;;;47.15;23.55;;;16.50;87.80;;;;;;5030540;28;20088;-79
2023/02/25 14:30:13;;;;;;;58.40;29.90;;;16.50;87.90;;;;;;5029530;28;20053;-80
2023/02/25 14:34:05;;;;;;;47.72;26.20;;;16.60;87.70;;;;;;5030655;28;20036;-78
2023/02/25 14:37:33;;;;;;;44.42;25.38;;;16.60;87.20;;;;;;5028556;28;20044;-80
2023/02/25 14:40:55;;;;;;;43.03;25.25;;;16.60;87.00;;;;;;5030447;28;20501;-79
2023/02/25 14:44:03;;;;;;;;;;;16.60;87.50;;;;;;5034740;28;20052;-79
2023/02/25 14:47:21;;;;;;;40.17;23.30;;;16.60;88.00;;;;;;5033892;28;19916;-79
2023/02/25 14:50:30;;;;;;;43.50;25.92;;;16.60;88.30;;;;;;5033824;28;20056;-79
2023/02/25 14:53:52;;;;;;;40.33;23.85;;;16.60;88.60;;;;;;5033726;28;20040;-79
2023/02/25 14:57:01;;;;;;;44.90;23.45;;;16.60;88.40;;;;;;5034055;28;20242;-79
2023/02/25 15:00:31;;;;;;;37.30;21.77;;;16.60;88.80;;;;;;5033608;28;20056;-79
2023/02/25 15:03:54;;;;;;;36.50;20.17;;;16.60;89.20;;;;;;5033726;28;20056;-79
2023/02/25 15:07:07;;;;;;;36.17;20.05;;;16.50;88.90;;;;;;5032764;28;20065;-79
2023/02/25 15:10:18;;;;;;;53.60;22.65;;;16.50;88.40;;;;;;5033295;28;20056;-77
2023/02/25 15:13:24;;;;;;;52.00;22.63;;;16.50;87.90;;;;;;5032564;28;20044;-81
2023/02/25 15:16:52;;;;;;;30.55;17.15;;;16.50;87.70;;;;;;5033427;28;20650;-79
2023/02/25 15:20:19;;;;;;;29.83;15.60;;;16.50;87.80;;;;;;5032875;28;20389;-79
2023/02/25 15:23:47;;;;;;;35.72;16.63;;;16.50;88.10;;;;;;5033287;28;20057;-78
2023/02/25 15:26:51;;;;;;;30.40;14.60;;;16.50;88.70;;;;;;5033241;28;20048;-78
2023/02/25 15:30:03;;;;;;;29.83;15.23;;;16.50;89.00;;;;;;5033010;28;20052;-79
2023/02/25 15:33:22;;;;;;;46.05;20.13;;;16.50;89.40;;;;;;5033272;28;20041;-79
2023/02/25 15:36:41;;;;;;;32.35;16.25;;;16.50;89.50;;;;;;5032896;28;20036;-80
2023/02/25 15:39:48;;;;;;;31.05;16.95;;;16.40;89.40;;;;;;5033062;28;20048;-79
2023/02/25 15:42:59;;;;;;;38.15;20.15;;;16.40;89.00;;;;;;5032441;28;20041;-78
2023/02/25 15:46:06;;;;;;;47.00;21.33;;;16.40;89.20;;;;;;5032203;28;20036;-78
2023/02/25 15:49:16;;;;;;;38.80;19.75;;;16.40;89.90;;;;;;5032817;28;20049;-78
2023/02/25 15:52:51;;;;;;;41.83;21.98;;;16.40;90.00;;;;;;5032406;28;20040;-79
2023/02/25 15:56:04;;;;;;;46.05;22.27;;;16.30;90.10;;;;;;5032292;28;20044;-78
2023/02/25 15:59:08;;;;;;;46.58;23.85;;;16.30;90.40;;;;;;5032392;28;20056;-78
2023/02/25 16:02:28;;;;;;;51.38;26.02;;;16.30;90.60;;;;;;5032144;28;20032;-78
2023/02/25 16:05:33;;;;;;;56.30;24.35;;;16.20;90.60;;;;;;5031721;28;20056;-78
2023/02/25 16:08:43;;;;;;;55.63;28.85;;;16.20;90.90;;;;;;5031932;28;20068;-78
2023/02/25 16:11:50;;;;;;;100.72;44.70;;;16.20;91.50;;;;;;5031941;28;20044;-78
2023/02/25 16:14:57;;;;;;;70.88;34.88;;;16.10;91.80;;;;;;5031372;28;20389;-77
2023/02/25 16:18:21;;;;;;;66.88;32.70;;;16.10;91.70;;;;;;5032132;28;20597;-78
2023/02/25 16:21:36;;;;;;;81.75;36.15;;;16.10;91.60;;;;;;5031883;28;20045;-78
2023/02/25 16:24:53;;;;;;;63.58;32.65;;;16.10;91.60;;;;;;5031800;28;20048;-78
2023/02/25 16:28:06;;;;;;;94.25;34.35;;;16.10;91.70;;;;;;5031708;28;20060;-79